Aviation Digital Data Service (ADDS)

Output produced by METARs form (2100 UTC 20 October 2018)
found at http://www.aviationweather.gov/metar/data/
 
TAF TAPA 201700Z 2018/2118 07011KT 9999 SCT021 
     PROB30 
     TEMPO 2104/2110 SHRA